Time;durP1;ratioP1;P1;durP2;ratioP2;P2;SDS_P1;SDS_P2;PMS_P1;PMS_P2;Temp;Humidity;BMP_temperature;BMP_pressure;BME280_temperature;BME280_humidity;BME280_pressure;Samples;Min_cycle;Max_cycle;Signal;HPM_P1;HPM_P2
2022/04/16 00:01:12;;;;;;;2.20;1.50;;;;;;;11.78;57.40;99652.06;4967970;28;19918;-85
2022/04/16 00:03:38;;;;;;;;;;;;;;;11.81;57.72;99657.28;4968000;28;20054;-85
2022/04/16 00:06:03;;;;;;;2.65;2.15;;;;;;;11.80;57.60;99653.78;4968619;28;19985;-87
2022/04/16 00:08:29;;;;;;;;;;;;;;;11.76;57.66;99649.44;4966173;28;20474;-86
2022/04/16 00:10:55;;;;;;;;;;;;;;;11.70;57.89;99654.00;4968135;28;20468;-85
2022/04/16 00:13:22;;;;;;;4.57;1.98;;;;;;;11.73;58.04;99652.16;4968253;28;19918;-85
2022/04/16 00:15:52;;;;;;;5.97;2.90;;;;;;;11.45;58.21;99631.56;4967697;28;20038;-85
2022/04/16 00:18:18;;;;;;;2.45;2.05;;;;;;;11.53;58.46;99643.75;4968380;28;20062;-84
2022/04/16 00:20:45;;;;;;;1.52;1.40;;;;;;;11.41;58.38;99639.56;4971570;28;20107;-84
2022/04/16 00:23:10;;;;;;;1.65;1.38;;;;;;;11.52;58.60;99658.72;4971494;28;20046;-88
2022/04/16 00:25:36;;;;;;;;;;;;;;;11.49;58.77;99665.84;4972216;28;20034;-85
2022/04/16 00:28:03;;;;;;;2.00;1.90;;;;;;;11.50;58.26;99655.25;4971595;28;19930;-85
2022/04/16 00:30:35;;;;;;;1.92;1.73;;;;;;;11.50;58.02;99654.38;4971760;28;20093;-85
2022/04/16 00:33:02;;;;;;;1.52;1.25;;;;;;;11.51;58.21;99664.03;4972166;28;20085;-84
2022/04/16 00:35:29;;;;;;;9.50;2.47;;;;;;;11.60;57.28;99654.19;4971814;28;20034;-84
2022/04/16 00:37:55;;;;;;;2.50;1.20;;;;;;;11.38;57.68;99647.56;4970260;28;20050;-86
2022/04/16 00:40:20;;;;;;;;;;;;;;;11.33;57.88;99673.19;4972049;28;20074;-83
2022/04/16 00:42:46;;;;;;;1.30;1.17;;;;;;;11.20;58.41;99667.25;4973227;28;20391;-85
2022/04/16 00:45:12;;;;;;;;;;;;;;;11.23;58.45;99676.00;4974843;28;20031;-84
2022/04/16 00:47:37;;;;;;;2.17;1.98;;;;;;;11.32;58.53;99682.00;4974161;28;19921;-86
2022/04/16 00:50:04;;;;;;;;;;;;;;;11.23;58.44;99672.47;4973970;28;20030;-84
2022/04/16 00:52:30;;;;;;;3.00;2.05;;;;;;;11.30;58.65;99671.47;4971698;28;19925;-84
2022/04/16 00:54:55;;;;;;;;;;;;;;;11.27;58.15;99675.03;4971575;28;20039;-83
2022/04/16 00:57:23;;;;;;;2.30;1.60;;;;;;;11.28;57.82;99655.66;4971036;28;19976;-84
2022/04/16 00:59:49;;;;;;;2.88;2.20;;;;;;;10.88;60.01;99668.69;4971329;28;20038;-83
2022/04/16 01:02:14;;;;;;;;;;;;;;;11.05;60.26;99679.81;4972349;28;20039;-83
2022/04/16 01:04:40;;;;;;;1.55;1.45;;;;;;;10.93;60.47;99665.06;4970492;28;19922;-83
2022/04/16 01:07:08;;;;;;;;;;;;;;;10.74;61.79;99682.97;4970497;28;20548;-84
2022/04/16 01:09:33;;;;;;;2.70;2.50;;;;;;;10.77;61.06;99676.78;4970182;28;19937;-86
2022/04/16 01:11:59;;;;;;;;;;;;;;;10.72;61.38;99679.50;4969826;28;20217;-85
2022/04/16 01:14:25;;;;;;;1.63;1.52;;;;;;;10.55;62.07;99684.13;4970989;28;19925;-83
2022/04/16 01:16:52;;;;;;;;;;;;;;;10.41;63.49;99687.00;4971184;28;20092;-85
2022/04/16 01:19:21;;;;;;;3.92;2.58;;;;;;;10.52;62.77;99693.00;4969048;28;20043;-85
2022/04/16 01:21:47;;;;;;;1.42;1.33;;;;;;;10.55;62.74;99652.47;4969757;28;20482;-85
2022/04/16 01:24:14;;;;;;;;;;;;;;;10.59;63.11;99683.22;4970587;28;20041;-85
2022/04/16 01:26:41;;;;;;;5.88;2.15;;;;;;;10.46;63.20;99673.75;4970045;28;19918;-84
2022/04/16 01:29:08;;;;;;;2.45;2.28;;;;;;;10.26;63.70;99648.50;4969551;28;20081;-84
2022/04/16 01:31:33;;;;;;;3.78;3.40;;;;;;;10.36;63.67;99642.25;4969012;28;20034;-84
2022/04/16 01:33:59;;;;;;;;;;;;;;;10.59;63.05;99667.38;4969706;28;20059;-83
2022/04/16 01:36:25;;;;;;;;;;;;;;;10.56;62.77;99670.91;4970878;28;19949;-85
2022/04/16 01:38:51;;;;;;;3.03;2.63;;;;;;;10.41;62.82;99646.56;4969014;28;19929;-84
2022/04/16 01:41:17;;;;;;;;;;;;;;;10.85;62.35;99660.81;4970851;28;20146;-85
2022/04/16 01:43:42;;;;;;;3.50;3.08;;;;;;;11.05;61.94;99663.13;4969583;28;20312;-85
2022/04/16 01:46:07;;;;;;;;;;;;;;;11.04;61.60;99653.44;4968360;28;20514;-85
2022/04/16 01:48:33;;;;;;;;;;;;;;;11.08;62.07;99650.72;4969450;28;19933;-85
2022/04/16 01:50:58;;;;;;;8.20;4.65;;;;;;;10.90;61.12;99627.28;4969181;28;19918;-86
2022/04/16 01:53:24;;;;;;;;;;;;;;;11.19;61.24;99647.03;4970407;28;20521;-84
2022/04/16 01:55:49;;;;;;;;;;;;;;;11.02;61.46;99650.84;4969712;28;20442;-84
2022/04/16 01:58:15;;;;;;;3.75;1.10;;;;;;;10.91;61.64;99643.09;4969316;28;19918;-83
2022/04/16 02:00:41;;;;;;;;;;;;;;;10.84;62.00;99641.47;4968713;28;20437;-83
2022/04/16 02:03:08;;;;;;;1.58;1.48;;;;;;;10.93;61.01;99641.31;4968822;28;19922;-84
2022/04/16 02:05:35;;;;;;;1.55;1.45;;;;;;;10.55;61.88;99619.09;4968246;28;20478;-84
2022/04/16 02:08:00;;;;;;;1.90;1.63;;;;;;;10.71;62.24;99653.13;4968349;28;20520;-84
2022/04/16 02:10:25;;;;;;;;;;;;;;;10.18;63.89;99659.16;4967582;28;20035;-84
2022/04/16 02:12:51;;;;;;;;;;;;;;;10.45;63.65;99649.13;4962337;28;20451;-84
2022/04/16 02:15:16;;;;;;;1.90;1.80;;;;;;;10.19;63.28;99639.81;4969329;28;20054;-84
2022/04/16 02:17:42;;;;;;;;;;;;;;;10.15;63.71;99645.16;4969254;28;20094;-84
2022/04/16 02:20:08;;;;;;;;;;;;;;;10.28;63.39;99653.75;4968268;28;19925;-84
2022/04/16 02:22:42;;;;;;;6.32;2.05;;;;;;;10.20;62.68;99641.53;4968995;28;20004;-84
2022/04/16 02:25:08;;;;;;;2.85;2.17;;;;;;;9.84;62.26;99638.53;4969160;28;20497;-85
2022/04/16 02:27:34;;;;;;;1.58;1.48;;;;;;;9.82;62.73;99647.34;4969199;28;20113;-90
2022/04/16 02:30:08;;;;;;;1.45;1.35;;;;;;;9.63;62.82;99600.16;4950702;28;20176;-86
2022/04/16 02:32:41;;;;;;;1.98;1.75;;;;;;;9.86;62.27;99649.03;4950071;28;20043;-87
2022/04/16 02:35:08;;;;;;;1.92;1.67;;;;;;;9.95;61.77;99624.34;4949227;28;20078;-85
2022/04/16 02:37:34;;;;;;;1.27;1.17;;;;;;;10.06;61.72;99640.03;4966774;28;20070;-86
2022/04/16 02:40:01;;;;;;;1.73;1.63;;;;;;;10.08;62.01;99630.31;4961757;28;20038;-86
2022/04/16 02:42:26;;;;;;;1.63;1.52;;;;;;;10.11;61.88;99625.00;4969010;28;20034;-86
2022/04/16 02:47:35;;;;;;;2.08;1.98;;;;;;;10.07;61.73;99610.13;4969321;28;19964;-86
2022/04/16 02:50:01;;;;;;;;;;;;;;;10.06;61.85;99621.56;4970643;28;20035;-86
2022/04/16 02:52:26;;;;;;;;;;;;;;;10.04;61.57;99617.19;4970317;28;19914;-86
2022/04/16 02:54:54;;;;;;;1.60;1.17;;;;;;;9.70;62.51;99585.16;4971238;28;19922;-85
2022/04/16 02:57:20;;;;;;;1.90;1.80;;;;;;;9.80;62.32;99607.84;4968534;28;20050;-87
2022/04/16 02:59:46;;;;;;;;;;;;;;;9.52;63.80;99611.72;4970017;28;20037;-86
2022/04/16 03:02:13;;;;;;;1.02;1.02;;;;;;;9.25;64.53;99605.88;4969002;28;20013;-86
2022/04/16 03:04:38;;;;;;;2.08;1.95;;;;;;;9.59;63.12;99601.09;4969492;28;20039;-87
2022/04/16 03:07:04;;;;;;;;;;;;;;;9.58;64.20;99616.94;4970572;28;20030;-85
2022/04/16 03:09:30;;;;;;;1.05;0.95;;;;;;;9.42;63.56;99613.56;4968802;28;20014;-84
2022/04/16 03:11:55;;;;;;;;;;;;;;;9.46;63.62;99618.78;4969921;28;20575;-84
2022/04/16 03:19:49;;;;;;;1.02;1.02;;;;;;;9.28;64.09;99603.22;4969653;28;20069;-83
2022/04/16 03:22:15;;;;;;;3.28;2.97;;;;;;;9.18;64.74;99609.47;4969846;28;20027;-86
2022/04/16 03:24:40;;;;;;;;;;;;;;;9.39;65.16;99630.31;4970363;28;20892;-84
2022/04/16 03:27:06;;;;;;;2.88;2.63;;;;;;;9.26;64.31;99592.69;4968140;28;19965;-83
2022/04/16 03:29:33;;;;;;;9.18;4.72;;;;;;;9.39;63.85;99597.81;4969015;28;20042;-86
2022/04/16 03:31:58;;;;;;;1.33;1.27;;;;;;;9.31;64.82;99616.34;4969326;28;20039;-87
2022/04/16 03:34:23;;;;;;;;;;;;;;;9.01;68.03;99634.19;4968752;28;20448;-88
2022/04/16 03:36:49;;;;;;;2.58;2.38;;;;;;;9.17;68.42;99642.81;4968814;28;19961;-86
2022/04/16 03:39:14;;;;;;;;;;;;;;;9.26;68.56;99636.56;4969499;28;20485;-86
2022/04/16 03:41:39;;;;;;;;;;;;;;;9.46;67.44;99637.22;4968895;28;19922;-86
2022/04/16 03:44:06;;;;;;;1.80;1.63;;;;;;;9.60;66.90;99623.03;4969403;28;19922;-85
2022/04/16 03:46:32;;;;;;;3.88;2.70;;;;;;;9.76;66.12;99648.31;4968915;28;20364;-86
2022/04/16 03:48:59;;;;;;;;;;;;;;;9.42;66.89;99651.34;4969254;28;20039;-87
2022/04/16 03:51:26;;;;;;;1.90;1.80;;;;;;;9.40;66.56;99647.81;4968617;28;20385;-87
2022/04/16 03:53:52;;;;;;;2.67;2.53;;;;;;;9.66;65.72;99650.16;4969955;28;20043;-86
2022/04/16 04:01:45;;;;;;;3.40;3.17;;;;;;;10.06;63.65;99613.66;4971053;28;20033;-85
2022/04/16 04:04:11;;;;;;;;;;;;;;;10.19;64.61;99650.38;4970607;28;20050;-85
2022/04/16 04:06:36;;;;;;;;;;;;;;;10.37;63.89;99653.66;4970682;28;19918;-89
2022/04/16 04:09:02;;;;;;;10.75;4.15;;;;;;;10.30;63.38;99623.84;4972273;28;20678;-87
2022/04/16 04:11:27;;;;;;;;;;;;;;;10.52;64.13;99652.56;4959664;28;20855;-86
2022/04/16 04:13:53;;;;;;;2.55;2.35;;;;;;;10.70;63.07;99648.75;4972090;28;19918;-86
2022/04/16 04:16:19;;;;;;;;;;;;;;;10.75;63.13;99654.81;4973064;28;20493;-87
2022/04/16 04:18:45;;;;;;;2.65;2.45;;;;;;;10.65;62.74;99611.88;4973101;28;20435;-86
2022/04/16 04:21:10;;;;;;;;;;;;;;;10.78;63.06;99657.41;4971527;28;20027;-90
2022/04/16 04:23:35;;;;;;;2.50;2.30;;;;;;;10.69;63.21;99626.78;4973063;28;19922;-86
2022/04/16 04:26:01;;;;;;;;;;;;;;;10.90;63.01;99662.47;4970038;28;20148;-88
2022/04/16 04:28:26;;;;;;;2.65;2.47;;;;;;;11.03;62.13;99664.91;4971672;28;19910;-86
2022/04/16 04:30:51;;;;;;;;;;;;;;;10.83;63.27;99659.97;4953678;28;20039;-86
2022/04/16 04:33:17;;;;;;;2.17;1.98;;;;;;;10.85;63.37;99664.31;4971864;28;19918;-86
2022/04/16 04:35:42;;;;;;;;;;;;;;;10.92;63.40;99667.72;4973099;28;20061;-85
2022/04/16 04:38:08;;;;;;;4.95;3.45;;;;;;;10.77;63.69;99653.03;4972312;28;19969;-85
2022/04/16 04:40:33;;;;;;;;;;;;;;;11.08;63.42;99677.13;4972696;28;20046;-86
2022/04/16 04:42:58;;;;;;;;;;;;;;;11.11;62.95;99673.56;4972131;28;19968;-86
2022/04/16 04:45:24;;;;;;;2.47;1.90;;;;;;;11.16;62.78;99666.44;4972429;28;19914;-85
2022/04/16 04:47:49;;;;;;;;;;;;;;;11.38;63.15;99676.59;4973367;28;20039;-85
2022/04/16 04:50:15;;;;;;;;;;;;;;;11.57;62.56;99677.13;4973391;28;19956;-86
2022/04/16 04:52:42;;;;;;;1.27;1.17;;;;;;;11.90;61.18;99691.44;4972173;28;20036;-86
2022/04/16 04:55:10;;;;;;;2.45;2.10;;;;;;;11.80;60.90;99644.94;4973203;28;20073;-85
2022/04/16 04:57:36;;;;;;;3.50;2.17;;;;;;;11.90;60.91;99657.09;4972627;28;20081;-85
2022/04/16 05:00:06;;;;;;;2.15;2.00;;;;;;;12.04;61.04;99683.25;4971119;28;20493;-87
2022/04/16 05:02:45;;;;;;;3.35;3.05;;;;;;;12.26;60.30;99672.22;4972219;28;20031;-86
2022/04/16 05:05:11;;;;;;;2.58;2.33;;;;;;;12.12;59.09;99667.22;4970371;28;20041;-86
2022/04/16 05:07:37;;;;;;;;;;;;;;;12.33;59.47;99681.78;4956430;28;20117;-86
2022/04/16 05:10:04;;;;;;;2.80;2.60;;;;;;;12.44;59.68;99681.53;4970844;28;19922;-86
2022/04/16 05:12:29;;;;;;;3.38;2.08;;;;;;;12.34;59.42;99655.28;4970776;28;20042;-86
2022/04/16 05:14:55;;;;;;;;;;;;;;;12.15;59.04;99683.03;4971015;28;20038;-88
2022/04/16 05:17:20;;;;;;;2.58;2.25;;;;;;;12.51;58.41;99688.38;4970325;28;19962;-85
2022/04/16 05:19:45;;;;;;;;;;;;;;;12.45;57.97;99685.88;4970767;28;20134;-85
2022/04/16 05:22:11;;;;;;;;;;;;;;;12.43;58.83;99679.78;4970486;28;20451;-85
2022/04/16 05:24:37;;;;;;;1.47;1.10;;;;;;;12.63;58.46;99652.84;4970581;28;19925;-85
2022/04/16 05:27:03;;;;;;;5.22;2.97;;;;;;;12.98;58.96;99673.16;4965430;28;20430;-85
2022/04/16 05:29:48;;;;;;;;;;;;;;;13.06;59.98;99681.75;4970199;28;20034;-85
2022/04/16 05:32:16;;;;;;;1.55;1.45;;;;;;;13.04;57.53;99664.19;4970318;28;19922;-85
2022/04/16 05:34:42;;;;;;;2.70;2.42;;;;;;;13.14;57.11;99657.72;4970948;28;20031;-86
2022/04/16 05:37:07;;;;;;;;;;;;;;;12.97;56.11;99681.13;4971159;28;20100;-86
2022/04/16 05:39:33;;;;;;;1.77;1.58;;;;;;;13.31;57.00;99673.19;4967099;28;19961;-88
2022/04/16 05:41:58;;;;;;;;;;;;;;;13.43;56.04;99672.88;4963546;28;20058;-86
2022/04/16 05:44:24;;;;;;;3.90;3.50;;;;;;;13.74;55.39;99669.38;4970180;28;19988;-87
2022/04/16 05:46:49;;;;;;;;;;;;;;;13.80;55.17;99668.34;4971138;28;20041;-86
2022/04/16 05:49:14;;;;;;;;;;;;;;;14.01;56.07;99665.97;4971174;28;20008;-85
2022/04/16 05:51:40;;;;;;;2.83;2.03;;;;;;;14.15;54.96;99656.72;4970760;28;19941;-87
2022/04/16 05:54:05;;;;;;;;;;;;;;;14.51;52.61;99655.63;4970666;28;20277;-85
2022/04/16 05:56:31;;;;;;;;;;;;;;;14.53;51.66;99660.88;4970521;28;20390;-84
2022/04/16 05:58:59;;;;;;;1.35;1.25;;;;;;;14.41;51.04;99641.78;4970508;28;20370;-84
2022/04/16 06:01:24;;;;;;;2.53;1.88;;;;;;;14.44;52.21;99659.38;4968557;28;20480;-83
2022/04/16 06:03:50;;;;;;;;;;;;;;;14.64;52.18;99661.41;4970987;28;20038;-84
2022/04/16 06:06:15;;;;;;;4.22;2.13;;;;;;;14.83;51.86;99651.94;4970302;28;19918;-84
2022/04/16 06:08:40;;;;;;;1.48;1.27;;;;;;;15.21;50.68;99625.88;4970551;28;20475;-85
2022/04/16 06:11:06;;;;;;;2.45;1.17;;;;;;;15.50;50.18;99661.16;4970500;28;20101;-87
2022/04/16 06:13:32;;;;;;;1.38;1.13;;;;;;;15.71;49.06;99653.34;4969282;28;20045;-87
2022/04/16 06:15:58;;;;;;;1.55;1.05;;;;;;;15.64;48.04;99627.91;4969805;28;20112;-84
2022/04/16 06:18:24;;;;;;;1.48;1.38;;;;;;;15.81;49.12;99649.44;4969811;28;20062;-82
2022/04/16 06:20:49;;;;;;;1.70;1.55;;;;;;;15.75;48.06;99646.97;4970280;28;20485;-87
2022/04/16 06:23:22;;;;;;;;;;;;;;;15.83;47.07;99654.69;4971963;28;20190;-82
2022/04/16 06:25:48;;;;;;;1.20;1.10;;;;;;;16.23;46.31;99631.88;4966836;28;20024;-87
2022/04/16 06:28:14;;;;;;;2.65;1.33;;;;;;;16.38;46.82;99639.28;4967514;28;20133;-85
2022/04/16 06:30:39;;;;;;;;;;;;;;;16.16;46.09;99646.34;4969653;28;20038;-83
2022/04/16 06:33:05;;;;;;;0.55;0.52;;;;;;;16.72;46.72;99645.03;4968510;28;19922;-83
2022/04/16 06:35:30;;;;;;;1.80;1.38;;;;;;;16.60;44.46;99638.41;4969162;28;20049;-84
2022/04/16 06:37:56;;;;;;;;;;;;;;;16.85;43.53;99640.91;4967629;28;20816;-85
2022/04/16 06:40:21;;;;;;;3.28;1.35;;;;;;;17.17;42.79;99638.72;4955390;28;19929;-88
2022/04/16 06:42:47;;;;;;;1.50;1.05;;;;;;;17.63;44.40;99655.38;4965191;28;20046;-86
2022/04/16 06:45:13;;;;;;;;;;;;;;;17.79;42.20;99644.00;4966954;28;20115;-85
2022/04/16 06:47:39;;;;;;;1.50;1.40;;;;;;;17.37;41.46;99635.19;4965822;28;19922;-91
2022/04/16 06:50:05;;;;;;;2.60;2.00;;;;;;;17.48;42.58;99637.38;4966686;28;20058;-85
2022/04/16 06:52:31;;;;;;;2.53;1.70;;;;;;;18.06;42.45;99633.91;4968278;28;20117;-86
2022/04/16 06:54:57;;;;;;;2.45;2.03;;;;;;;18.03;44.01;99623.38;4968819;28;20027;-85
2022/04/16 06:57:24;;;;;;;1.35;1.25;;;;;;;18.16;42.20;99615.66;4968459;28;20030;-85
2022/04/16 06:59:50;;;;;;;1.52;1.40;;;;;;;18.44;42.03;99617.84;4966616;28;20042;-89
2022/04/16 07:02:16;;;;;;;1.20;1.00;;;;;;;18.66;42.49;99607.00;4949683;28;20035;-90
2022/04/16 07:04:44;;;;;;;3.10;1.83;;;;;;;18.58;39.51;99587.78;4968223;28;20114;-85
2022/04/16 07:07:12;;;;;;;2.20;1.30;;;;;;;18.78;39.17;99609.03;4968655;28;20058;-85
2022/04/16 07:09:41;;;;;;;4.03;2.17;;;;;;;18.95;38.88;99581.50;4969372;28;20030;-86
2022/04/16 07:12:12;;;;;;;2.28;1.98;;;;;;;19.03;38.44;99596.25;4970166;28;20042;-84
2022/04/16 07:14:38;;;;;;;3.03;2.00;;;;;;;18.74;39.22;99559.38;4972131;28;20039;-86
2022/04/16 07:17:05;;;;;;;2.42;2.20;;;;;;;18.93;39.10;99595.88;4971479;28;20070;-85
2022/04/16 07:19:31;;;;;;;1.85;1.75;;;;;;;19.24;38.98;99597.81;4970712;28;20125;-85
2022/04/16 07:21:57;;;;;;;3.13;1.70;;;;;;;19.31;40.68;99588.53;4970293;28;20035;-88
2022/04/16 07:24:24;;;;;;;2.38;1.63;;;;;;;19.33;38.45;99605.34;4968238;28;20041;-90
2022/04/16 07:26:54;;;;;;;2.55;1.73;;;;;;;19.28;40.42;99602.06;4976852;28;20035;-87
2022/04/16 07:29:24;;;;;;;1.48;1.38;;;;;;;19.27;40.25;99605.66;4986863;28;20124;-88
2022/04/16 07:31:50;;;;;;;2.55;2.00;;;;;;;19.09;40.50;99586.13;4990168;28;20031;-90
2022/04/16 07:34:16;;;;;;;2.50;1.48;;;;;;;19.46;40.24;99576.16;4987725;28;20050;-89
2022/04/16 07:36:45;;;;;;;3.00;2.60;;;;;;;19.55;40.10;99556.06;4981470;28;20054;-88
2022/04/16 07:39:12;;;;;;;3.22;2.85;;;;;;;19.75;39.14;99565.66;4967214;28;20039;-86
2022/04/16 07:41:38;;;;;;;3.53;2.10;;;;;;;19.86;38.97;99583.84;4968556;28;20038;-86
2022/04/16 07:44:04;;;;;;;3.83;3.08;;;;;;;19.34;39.84;99566.13;4968578;28;20041;-88
2022/04/16 07:46:34;;;;;;;3.22;2.17;;;;;;;19.48;40.38;99549.34;4966360;28;20101;-85
2022/04/16 07:49:00;;;;;;;2.92;2.47;;;;;;;19.03;41.89;99554.38;4968269;28;20030;-86
2022/04/16 07:51:26;;;;;;;2.22;1.67;;;;;;;19.36;41.23;99561.53;4966614;28;20109;-86
2022/04/16 07:53:53;;;;;;;3.10;1.55;;;;;;;19.72;40.68;99568.50;4967739;28;20077;-89
2022/04/16 07:56:19;;;;;;;3.08;1.98;;;;;;;19.76;40.60;99569.22;4967213;28;20031;-87
2022/04/16 07:58:44;;;;;;;2.25;1.90;;;;;;;19.66;40.96;99575.09;4966826;28;20045;-87
2022/04/16 08:01:10;;;;;;;4.60;2.28;;;;;;;19.94;40.22;99562.91;4965247;28;20101;-84
2022/04/16 08:03:35;;;;;;;2.85;2.05;;;;;;;19.95;40.91;99579.81;4967847;28;20034;-86
2022/04/16 08:06:01;;;;;;;1.92;1.40;;;;;;;19.79;41.99;99569.94;4967199;28;20038;-86
2022/04/16 08:08:26;;;;;;;2.90;2.17;;;;;;;19.56;41.52;99546.25;4967934;28;20045;-86
2022/04/16 08:10:53;;;;;;;9.10;2.10;;;;;;;19.78;40.76;99546.81;4967870;28;20059;-85
2022/04/16 08:13:19;;;;;;;3.08;2.08;;;;;;;19.69;41.25;99568.69;4966828;28;20039;-87
2022/04/16 08:15:48;;;;;;;3.92;2.40;;;;;;;20.35;40.66;99562.34;4965140;28;20149;-86
2022/04/16 08:18:14;;;;;;;2.85;1.98;;;;;;;20.47;40.11;99571.50;4968172;28;20097;-85
2022/04/16 08:20:39;;;;;;;3.30;2.90;;;;;;;20.13;40.62;99553.81;4967700;28;20094;-86
2022/04/16 08:23:06;;;;;;;3.80;2.33;;;;;;;20.32;39.18;99556.31;4968553;28;20027;-86
2022/04/16 08:28:03;;;;;;;4.43;2.78;;;;;;;20.44;38.99;99554.75;4968020;28;20041;-84
2022/04/16 08:30:29;;;;;;;11.38;3.10;;;;;;;20.66;39.51;99546.34;4968988;28;20035;-85
2022/04/16 08:32:54;;;;;;;7.25;3.00;;;;;;;21.11;38.46;99565.97;4968199;28;20037;-87
2022/04/16 08:35:20;;;;;;;3.20;2.05;;;;;;;21.27;37.26;99558.72;4967565;28;20031;-86
2022/04/16 08:37:48;;;;;;;4.95;2.08;;;;;;;21.45;38.21;99545.97;4968473;28;20030;-87
2022/04/16 08:40:14;;;;;;;166.30;123.18;;;;;;;21.72;37.72;99552.41;4983180;28;20054;-87
2022/04/16 08:42:42;;;;;;;1999.90;991.38;;;;;;;22.17;36.65;99524.41;4994110;28;20034;-87
2022/04/16 08:45:09;;;;;;;313.98;244.00;;;;;;;22.60;35.10;99554.78;4982215;28;20109;-86
2022/04/16 08:47:36;;;;;;;102.15;62.92;;;;;;;22.44;35.89;99536.16;4976949;28;20038;-85
2022/04/16 08:50:05;;;;;;;56.55;36.60;;;;;;;22.57;34.92;99523.63;4976399;28;20859;-85
2022/04/16 08:52:33;;;;;;;128.88;77.90;;;;;;;22.56;35.19;99531.78;4970366;28;20046;-86
2022/04/16 08:55:00;;;;;;;27.95;24.27;;;;;;;22.75;33.67;99537.63;4970132;28;20066;-86
2022/04/16 08:57:26;;;;;;;119.82;86.28;;;;;;;22.75;33.18;99521.50;4970640;28;20031;-84
2022/04/16 08:59:53;;;;;;;266.10;206.45;;;;;;;22.74;35.06;99514.41;4970406;28;20041;-86
2022/04/16 09:02:20;;;;;;;192.38;112.35;;;;;;;23.30;33.18;99516.84;4970232;28;20046;-86
2022/04/16 09:04:49;;;;;;;1659.85;971.53;;;;;;;23.29;33.98;99506.19;4964911;28;20489;-84
2022/04/16 09:07:15;;;;;;;1185.03;857.55;;;;;;;23.48;33.13;99500.34;4970332;28;20039;-85
2022/04/16 09:09:42;;;;;;;137.50;93.00;;;;;;;23.86;30.53;99499.44;4970927;28;20042;-84
2022/04/16 09:12:20;;;;;;;1000.85;600.83;;;;;;;23.59;32.84;99487.81;4970626;28;20124;-86
2022/04/16 09:14:46;;;;;;;389.58;236.13;;;;;;;23.81;32.04;99483.56;4971099;28;20121;-84
2022/04/16 09:17:18;;;;;;;808.10;690.45;;;;;;;24.51;31.38;99495.47;4970484;28;20477;-85
2022/04/16 09:19:54;;;;;;;90.28;81.47;;;;;;;24.02;31.94;99477.59;4971614;28;20413;-85
2022/04/16 09:22:49;;;;;;;;;;;;;;;24.29;32.83;99501.63;4971386;28;20047;-85
2022/04/16 09:25:16;;;;;;;3.85;3.08;;;;;;;23.84;32.12;99477.09;4960728;28;19918;-85
2022/04/16 09:27:46;;;;;;;20.17;2.72;;;;;;;23.88;32.26;99495.66;4970062;28;20042;-85
2022/04/16 09:30:22;;;;;;;3.28;1.65;;;;;;;23.44;31.81;99451.25;4957873;28;20066;-86
2022/04/16 09:32:49;;;;;;;3.05;1.33;;;;;;;23.60;32.07;99465.34;4952559;28;20039;-85
2022/04/16 09:35:36;;;;;;;2.45;1.95;;;;;;;23.53;32.49;99461.34;5001240;28;20047;-86
2022/04/16 09:38:04;;;;;;;3.15;1.75;;;;;;;23.86;31.09;99469.81;4983206;28;20133;-84
2022/04/16 09:40:31;;;;;;;3.88;2.63;;;;;;;24.09;32.39;99460.00;4972127;28;20041;-84
2022/04/16 09:43:02;;;;;;;3.00;2.67;;;;;;;23.80;31.86;99470.22;4970588;28;20030;-86
2022/04/16 09:45:31;;;;;;;2.90;1.88;;;;;;;24.14;32.23;99471.28;4970588;28;20043;-85
2022/04/16 09:47:57;;;;;;;3.25;2.00;;;;;;;23.82;32.10;99452.97;4970480;28;20394;-84
2022/04/16 09:50:29;;;;;;;2.20;1.85;;;;;;;24.37;30.33;99464.16;4969894;28;20023;-85
2022/04/16 09:52:59;;;;;;;4.78;3.40;;;;;;;24.60;31.46;99461.59;4969649;28;20062;-84
2022/04/16 09:55:25;;;;;;;4.00;3.17;;;;;;;24.77;32.08;99468.38;4968729;28;20045;-82
2022/04/16 09:57:58;;;;;;;4.05;2.65;;;;;;;24.64;32.07;99479.25;4970003;28;20039;-82
2022/04/16 10:00:24;;;;;;;5.32;3.45;;;;;;;24.44;31.30;99451.09;4969662;28;20571;-82
2022/04/16 10:02:50;;;;;;;3.40;2.28;;;;;;;24.49;33.22;99446.19;4968856;28;20043;-84
2022/04/16 10:05:16;;;;;;;5.22;2.72;;;;;;;24.36;32.14;99434.63;4971616;28;20524;-81
2022/04/16 10:07:44;;;;;;;3.65;2.53;;;;;;;24.56;33.15;99444.75;4968183;28;20525;-83
2022/04/16 10:10:19;;;;;;;4.45;3.13;;;;;;;24.34;33.48;99453.63;4965277;28;20425;-83
2022/04/16 10:12:59;;;;;;;6.80;4.50;;;;;;;24.47;33.40;99446.31;4950068;28;20031;-83
2022/04/16 10:15:48;;;;;;;5.95;4.63;;;;;;;24.39;32.23;99427.19;4948828;28;20395;-82
2022/04/16 10:18:13;;;;;;;5.00;3.55;;;;;;;24.52;32.60;99445.97;4950045;28;20052;-83
2022/04/16 10:20:55;;;;;;;5.85;4.00;;;;;;;24.66;32.27;99439.53;4950075;28;20042;-82
2022/04/16 10:23:38;;;;;;;4.18;2.80;;;;;;;24.97;32.64;99439.81;4949661;28;20066;-81
2022/04/16 10:26:11;;;;;;;4.65;3.50;;;;;;;25.13;31.98;99431.38;4951193;28;20039;-83
2022/04/16 10:28:50;;;;;;;5.97;3.60;;;;;;;24.75;32.49;99444.22;4953817;28;20110;-82
2022/04/16 10:31:23;;;;;;;4.47;3.15;;;;;;;24.74;31.01;99415.50;4966767;28;20047;-83
2022/04/16 10:34:03;;;;;;;4.65;3.65;;;;;;;25.03;29.98;99425.84;4968885;28;20049;-85
2022/04/16 10:36:37;;;;;;;5.05;3.33;;;;;;;24.91;30.05;99430.38;4967321;28;20026;-82
2022/04/16 10:39:16;;;;;;;4.05;2.75;;;;;;;24.95;32.29;99431.84;4968274;28;20042;-81
2022/04/16 10:41:56;;;;;;;4.05;2.63;;;;;;;24.76;31.71;99426.19;4956534;28;20043;-81
2022/04/16 10:44:23;;;;;;;4.57;1.90;;;;;;;24.84;32.22;99419.22;4960653;28;20031;-81
2022/04/16 10:46:50;;;;;;;4.82;2.90;;;;;;;24.92;31.42;99417.75;4967629;28;20150;-81
2022/04/16 10:49:18;;;;;;;4.65;2.38;;;;;;;24.86;31.28;99402.06;4964857;28;20110;-82
2022/04/16 10:51:44;;;;;;;5.57;4.65;;;;;;;25.14;30.08;99396.16;4963114;28;20037;-83
2022/04/16 10:54:15;;;;;;;2.92;2.30;;;;;;;25.25;29.97;99418.75;4964292;28;20086;-84
2022/04/16 10:56:52;;;;;;;5.03;2.35;;;;;;;25.07;29.57;99397.66;4961497;28;20533;-83
2022/04/16 10:59:18;;;;;;;2.08;1.30;;;;;;;25.19;29.17;99402.06;4968222;28;20189;-86
2022/04/16 11:01:53;;;;;;;2.60;1.33;;;;;;;25.13;29.22;99389.06;4969055;28;20686;-84
2022/04/16 11:04:19;;;;;;;;;;;;;;;25.58;22.30;99401.69;4968563;28;20031;-84
2022/04/16 11:06:45;;;;;;;2.22;1.20;;;;;;;25.58;23.18;99388.16;4966239;28;19925;-84
2022/04/16 11:09:13;;;;;;;2.10;0.90;;;;;;;25.52;25.06;99394.94;4966821;28;20027;-84
2022/04/16 11:11:41;;;;;;;0.52;0.52;;;;;;;25.53;22.58;99401.19;4968060;28;20050;-84
2022/04/16 11:14:09;;;;;;;2.58;1.27;;;;;;;25.60;21.80;99374.53;4967729;28;20027;-86
2022/04/16 11:16:42;;;;;;;1.83;1.20;;;;;;;25.95;23.18;99397.75;4968775;28;20046;-86
2022/04/16 11:19:15;;;;;;;1.77;1.08;;;;;;;25.90;23.90;99374.69;4967152;28;20038;-86
2022/04/16 11:21:41;;;;;;;1.33;1.08;;;;;;;25.83;24.56;99370.78;4968014;28;20062;-84
2022/04/16 11:24:07;;;;;;;1.90;1.08;;;;;;;25.77;25.71;99374.00;4967698;28;20022;-84
2022/04/16 11:34:57;;;;;;;2.40;2.13;;;;;;;25.90;24.73;99350.38;4967688;28;20117;-83
2022/04/16 11:37:23;;;;;;;2.58;0.93;;;;;;;26.22;24.62;99365.72;4966981;28;20030;-84
2022/04/16 11:39:59;;;;;;;1.35;0.90;;;;;;;26.53;25.71;99362.22;4967195;28;20070;-83
2022/04/16 11:42:26;;;;;;;1.60;1.08;;;;;;;26.34;24.91;99353.00;4967202;28;20093;-85
2022/04/16 11:44:52;;;;;;;1.30;1.20;;;;;;;26.41;25.05;99351.44;4967977;28;20443;-84
2022/04/16 11:47:25;;;;;;;1.17;0.95;;;;;;;26.39;25.05;99344.47;4967983;28;20047;-85
2022/04/16 11:49:55;;;;;;;3.90;2.15;;;;;;;26.52;24.87;99337.00;4968566;28;20031;-84
2022/04/16 11:52:26;;;;;;;1.73;1.20;;;;;;;26.41;25.08;99345.19;4968541;28;20035;-84
2022/04/16 11:55:04;;;;;;;2.88;1.23;;;;;;;26.25;25.04;99361.91;4968010;28;20465;-84
2022/04/16 11:57:29;;;;;;;1.83;1.15;;;;;;;26.31;27.26;99347.84;4967804;28;20027;-85
2022/04/16 11:59:59;;;;;;;3.22;1.33;;;;;;;25.81;25.74;99329.53;4967992;28;20085;-84
2022/04/16 12:02:35;;;;;;;3.22;1.38;;;;;;;25.41;26.80;99335.56;4968553;28;20117;-84
2022/04/16 12:05:07;;;;;;;3.58;1.25;;;;;;;25.29;27.07;99352.78;4968506;28;20035;-84
2022/04/16 12:07:33;;;;;;;1.85;1.23;;;;;;;25.27;26.29;99349.28;4968976;28;20117;-85
2022/04/16 12:10:01;;;;;;;0.93;0.60;;;;;;;25.43;27.26;99346.25;4968915;28;20074;-84
2022/04/16 12:12:27;;;;;;;2.20;1.60;;;;;;;25.51;27.67;99335.66;4968795;28;20054;-84